sensor_id;sensor_type;location;lat;lon;timestamp;temperature;humidity
21815;DHT22;11069;48.988;8.450;2023-11-21T00:00:16;9.30;99.90
21815;DHT22;11069;48.988;8.450;2023-11-21T00:02:43;9.30;99.90
21815;DHT22;11069;48.988;8.450;2023-11-21T00:05:09;9.40;99.90
21815;DHT22;11069;48.988;8.450;2023-11-21T00:07:38;9.30;99.90
21815;DHT22;11069;48.988;8.450;2023-11-21T00:10:04;9.30;99.90
21815;DHT22;11069;48.988;8.450;2023-11-21T00:12:31;9.30;99.90
21815;DHT22;11069;48.988;8.450;2023-11-21T00:14:57;9.30;99.90
21815;DHT22;11069;48.988;8.450;2023-11-21T00:17:23;9.30;99.90
21815;DHT22;11069;48.988;8.450;2023-11-21T00:19:49;9.30;99.90
21815;DHT22;11069;48.988;8.450;2023-11-21T00:22:17;9.30;99.90
21815;DHT22;11069;48.988;8.450;2023-11-21T00:24:43;9.30;99.90
21815;DHT22;11069;48.988;8.450;2023-11-21T00:27:08;9.30;99.90
21815;DHT22;11069;48.988;8.450;2023-11-21T00:29:34;9.30;99.90
21815;DHT22;11069;48.988;8.450;2023-11-21T00:32:00;9.30;99.90
21815;DHT22;11069;48.988;8.450;2023-11-21T00:34:25;9.30;99.90
21815;DHT22;11069;48.988;8.450;2023-11-21T00:36:51;9.30;99.90
21815;DHT22;11069;48.988;8.450;2023-11-21T00:39:16;9.40;99.90
21815;DHT22;11069;48.988;8.450;2023-11-21T00:41:42;9.40;99.90
21815;DHT22;11069;48.988;8.450;2023-11-21T00:44:08;9.40;99.90
21815;DHT22;11069;48.988;8.450;2023-11-21T00:46:34;9.50;99.90
21815;DHT22;11069;48.988;8.450;2023-11-21T00:48:59;9.50;99.90
21815;DHT22;11069;48.988;8.450;2023-11-21T00:51:25;9.50;99.90
21815;DHT22;11069;48.988;8.450;2023-11-21T00:53:50;9.50;99.90
21815;DHT22;11069;48.988;8.450;2023-11-21T00:56:16;9.50;99.90
21815;DHT22;11069;48.988;8.450;2023-11-21T00:58:42;9.50;99.90
21815;DHT22;11069;48.988;8.450;2023-11-21T01:01:12;9.50;99.90
21815;DHT22;11069;48.988;8.450;2023-11-21T01:03:37;9.50;99.90
21815;DHT22;11069;48.988;8.450;2023-11-21T01:06:03;9.60;99.90
21815;DHT22;11069;48.988;8.450;2023-11-21T01:08:32;9.50;99.90
21815;DHT22;11069;48.988;8.450;2023-11-21T01:10:58;9.50;99.90
21815;DHT22;11069;48.988;8.450;2023-11-21T01:13:23;9.60;99.90
21815;DHT22;11069;48.988;8.450;2023-11-21T01:15:49;9.60;99.90
21815;DHT22;11069;48.988;8.450;2023-11-21T01:18:14;9.60;99.90
21815;DHT22;11069;48.988;8.450;2023-11-21T01:20:40;9.60;99.90
21815;DHT22;11069;48.988;8.450;2023-11-21T01:23:05;9.60;99.90
21815;DHT22;11069;48.988;8.450;2023-11-21T01:25:31;9.60;99.90
21815;DHT22;11069;48.988;8.450;2023-11-21T01:27:57;9.50;99.90
21815;DHT22;11069;48.988;8.450;2023-11-21T01:30:22;9.60;99.90
21815;DHT22;11069;48.988;8.450;2023-11-21T01:32:48;9.60;99.90
21815;DHT22;11069;48.988;8.450;2023-11-21T01:35:13;9.60;99.90
21815;DHT22;11069;48.988;8.450;2023-11-21T01:37:39;9.60;99.90
21815;DHT22;11069;48.988;8.450;2023-11-21T01:40:05;9.60;99.90
21815;DHT22;11069;48.988;8.450;2023-11-21T01:42:35;9.50;99.90
21815;DHT22;11069;48.988;8.450;2023-11-21T01:45:01;9.40;99.90
21815;DHT22;11069;48.988;8.450;2023-11-21T01:47:28;9.40;99.90
21815;DHT22;11069;48.988;8.450;2023-11-21T01:49:55;9.30;99.90
21815;DHT22;11069;48.988;8.450;2023-11-21T01:52:21;9.30;99.90
21815;DHT22;11069;48.988;8.450;2023-11-21T01:54:47;9.30;99.90
21815;DHT22;11069;48.988;8.450;2023-11-21T01:57:13;9.30;99.90
21815;DHT22;11069;48.988;8.450;2023-11-21T01:59:41;9.30;99.90
21815;DHT22;11069;48.988;8.450;2023-11-21T02:02:08;9.20;99.90
21815;DHT22;11069;48.988;8.450;2023-11-21T02:04:35;9.20;99.90
21815;DHT22;11069;48.988;8.450;2023-11-21T02:07:02;9.20;99.90
21815;DHT22;11069;48.988;8.450;2023-11-21T02:09:29;9.20;99.90
21815;DHT22;11069;48.988;8.450;2023-11-21T02:11:59;9.20;99.90
21815;DHT22;11069;48.988;8.450;2023-11-21T02:14:26;9.10;99.90
21815;DHT22;11069;48.988;8.450;2023-11-21T02:16:53;9.10;99.90
21815;DHT22;11069;48.988;8.450;2023-11-21T02:19:20;9.10;99.90
21815;DHT22;11069;48.988;8.450;2023-11-21T02:21:49;9.10;99.90
21815;DHT22;11069;48.988;8.450;2023-11-21T02:24:15;9.00;99.90
21815;DHT22;11069;48.988;8.450;2023-11-21T02:26:43;9.00;99.90
21815;DHT22;11069;48.988;8.450;2023-11-21T02:29:08;8.90;99.90
21815;DHT22;11069;48.988;8.450;2023-11-21T02:31:37;8.80;99.90
21815;DHT22;11069;48.988;8.450;2023-11-21T02:34:11;8.80;99.90
21815;DHT22;11069;48.988;8.450;2023-11-21T02:36:38;8.70;99.90
21815;DHT22;11069;48.988;8.450;2023-11-21T02:39:04;8.70;99.90
21815;DHT22;11069;48.988;8.450;2023-11-21T02:41:30;8.60;99.90
21815;DHT22;11069;48.988;8.450;2023-11-21T02:43:55;8.60;99.90
21815;DHT22;11069;48.988;8.450;2023-11-21T02:46:21;8.50;99.90
21815;DHT22;11069;48.988;8.450;2023-11-21T02:48:47;8.60;99.90
21815;DHT22;11069;48.988;8.450;2023-11-21T02:51:12;8.60;99.90
21815;DHT22;11069;48.988;8.450;2023-11-21T02:53:38;8.60;99.90
21815;DHT22;11069;48.988;8.450;2023-11-21T02:56:04;8.60;99.90
21815;DHT22;11069;48.988;8.450;2023-11-21T02:58:30;8.60;99.90
21815;DHT22;11069;48.988;8.450;2023-11-21T03:00:55;8.70;99.90
21815;DHT22;11069;48.988;8.450;2023-11-21T03:03:21;8.70;99.90
21815;DHT22;11069;48.988;8.450;2023-11-21T03:05:49;8.70;99.90
21815;DHT22;11069;48.988;8.450;2023-11-21T03:08:14;8.70;99.90
21815;DHT22;11069;48.988;8.450;2023-11-21T03:10:40;8.60;99.90
21815;DHT22;11069;48.988;8.450;2023-11-21T03:13:05;8.60;99.90
21815;DHT22;11069;48.988;8.450;2023-11-21T03:15:31;8.60;99.90
21815;DHT22;11069;48.988;8.450;2023-11-21T03:17:58;8.60;99.90
21815;DHT22;11069;48.988;8.450;2023-11-21T03:20:23;8.60;99.90
21815;DHT22;11069;48.988;8.450;2023-11-21T03:22:49;8.60;99.90
21815;DHT22;11069;48.988;8.450;2023-11-21T03:25:15;8.60;99.90
21815;DHT22;11069;48.988;8.450;2023-11-21T03:27:42;8.60;99.90
21815;DHT22;11069;48.988;8.450;2023-11-21T03:30:10;8.70;99.90
21815;DHT22;11069;48.988;8.450;2023-11-21T03:32:36;8.70;99.90
21815;DHT22;11069;48.988;8.450;2023-11-21T03:35:02;8.70;99.90
21815;DHT22;11069;48.988;8.450;2023-11-21T03:37:28;8.70;99.90
21815;DHT22;11069;48.988;8.450;2023-11-21T03:39:55;8.70;99.90
21815;DHT22;11069;48.988;8.450;2023-11-21T03:42:21;8.80;99.90
21815;DHT22;11069;48.988;8.450;2023-11-21T03:44:47;8.80;99.90
21815;DHT22;11069;48.988;8.450;2023-11-21T03:47:12;8.80;99.90
21815;DHT22;11069;48.988;8.450;2023-11-21T03:49:38;8.80;99.90
21815;DHT22;11069;48.988;8.450;2023-11-21T03:52:04;8.80;99.90
21815;DHT22;11069;48.988;8.450;2023-11-21T03:54:30;8.80;99.90
21815;DHT22;11069;48.988;8.450;2023-11-21T03:56:55;8.80;99.90
21815;DHT22;11069;48.988;8.450;2023-11-21T03:59:21;8.90;99.90
21815;DHT22;11069;48.988;8.450;2023-11-21T04:01:50;8.90;99.90
21815;DHT22;11069;48.988;8.450;2023-11-21T04:04:15;8.90;99.90
21815;DHT22;11069;48.988;8.450;2023-11-21T04:06:41;8.90;99.90
21815;DHT22;11069;48.988;8.450;2023-11-21T04:09:07;8.80;99.90
21815;DHT22;11069;48.988;8.450;2023-11-21T04:11:32;8.90;99.90
21815;DHT22;11069;48.988;8.450;2023-11-21T04:13:59;8.90;99.90
21815;DHT22;11069;48.988;8.450;2023-11-21T04:16:24;8.90;99.90
21815;DHT22;11069;48.988;8.450;2023-11-21T04:18:50;8.90;99.90
21815;DHT22;11069;48.988;8.450;2023-11-21T04:21:15;8.90;99.90
21815;DHT22;11069;48.988;8.450;2023-11-21T04:23:42;8.80;99.90
21815;DHT22;11069;48.988;8.450;2023-11-21T04:26:07;8.90;99.90
21815;DHT22;11069;48.988;8.450;2023-11-21T04:28:33;8.90;99.90
21815;DHT22;11069;48.988;8.450;2023-11-21T04:31:00;8.80;99.90
21815;DHT22;11069;48.988;8.450;2023-11-21T04:33:25;8.90;99.90
21815;DHT22;11069;48.988;8.450;2023-11-21T04:35:51;8.90;99.90
21815;DHT22;11069;48.988;8.450;2023-11-21T04:38:17;8.90;99.90
21815;DHT22;11069;48.988;8.450;2023-11-21T04:40:42;9.00;99.90
21815;DHT22;11069;48.988;8.450;2023-11-21T04:43:08;8.90;99.90
21815;DHT22;11069;48.988;8.450;2023-11-21T04:45:33;9.00;99.90
21815;DHT22;11069;48.988;8.450;2023-11-21T04:47:59;8.90;99.90
21815;DHT22;11069;48.988;8.450;2023-11-21T04:50:25;8.90;99.90
21815;DHT22;11069;48.988;8.450;2023-11-21T04:52:52;9.00;99.90
21815;DHT22;11069;48.988;8.450;2023-11-21T04:55:20;8.90;99.90
21815;DHT22;11069;48.988;8.450;2023-11-21T04:57:45;8.90;99.90
21815;DHT22;11069;48.988;8.450;2023-11-21T05:00:12;8.90;99.90
21815;DHT22;11069;48.988;8.450;2023-11-21T05:02:39;8.90;99.90
21815;DHT22;11069;48.988;8.450;2023-11-21T05:05:05;8.90;99.90
21815;DHT22;11069;48.988;8.450;2023-11-21T05:07:32;8.90;99.90
21815;DHT22;11069;48.988;8.450;2023-11-21T05:09:58;8.90;99.90
21815;DHT22;11069;48.988;8.450;2023-11-21T05:12:24;8.90;99.90
21815;DHT22;11069;48.988;8.450;2023-11-21T05:14:50;8.90;99.90
21815;DHT22;11069;48.988;8.450;2023-11-21T05:17:16;8.90;99.90
21815;DHT22;11069;48.988;8.450;2023-11-21T05:19:42;8.90;99.90
21815;DHT22;11069;48.988;8.450;2023-11-21T05:22:10;8.90;99.90
21815;DHT22;11069;48.988;8.450;2023-11-21T05:24:37;8.90;99.90
21815;DHT22;11069;48.988;8.450;2023-11-21T05:27:04;8.90;99.90
21815;DHT22;11069;48.988;8.450;2023-11-21T05:29:30;8.80;99.90
21815;DHT22;11069;48.988;8.450;2023-11-21T05:31:55;8.90;99.90
21815;DHT22;11069;48.988;8.450;2023-11-21T05:34:21;8.80;99.90
21815;DHT22;11069;48.988;8.450;2023-11-21T05:36:49;8.90;99.90
21815;DHT22;11069;48.988;8.450;2023-11-21T05:39:15;8.90;99.90
21815;DHT22;11069;48.988;8.450;2023-11-21T05:41:42;8.90;99.90
21815;DHT22;11069;48.988;8.450;2023-11-21T05:44:08;8.90;99.90
21815;DHT22;11069;48.988;8.450;2023-11-21T05:46:34;8.90;99.90
21815;DHT22;11069;48.988;8.450;2023-11-21T05:49:00;8.90;99.90
21815;DHT22;11069;48.988;8.450;2023-11-21T05:51:25;8.90;99.90
21815;DHT22;11069;48.988;8.450;2023-11-21T05:53:51;8.90;99.90
21815;DHT22;11069;48.988;8.450;2023-11-21T05:56:16;8.80;99.90
21815;DHT22;11069;48.988;8.450;2023-11-21T05:58:43;8.90;99.90
21815;DHT22;11069;48.988;8.450;2023-11-21T06:01:08;8.90;99.90
21815;DHT22;11069;48.988;8.450;2023-11-21T06:03:35;8.90;99.90
21815;DHT22;11069;48.988;8.450;2023-11-21T06:06:00;8.90;99.90
21815;DHT22;11069;48.988;8.450;2023-11-21T06:08:26;9.00;99.90
21815;DHT22;11069;48.988;8.450;2023-11-21T06:10:52;8.90;99.90
21815;DHT22;11069;48.988;8.450;2023-11-21T06:13:17;8.90;99.90
21815;DHT22;11069;48.988;8.450;2023-11-21T06:15:49;8.90;99.90
21815;DHT22;11069;48.988;8.450;2023-11-21T06:18:15;9.00;99.90
21815;DHT22;11069;48.988;8.450;2023-11-21T06:20:41;9.00;99.90
21815;DHT22;11069;48.988;8.450;2023-11-21T06:23:06;9.00;99.90
21815;DHT22;11069;48.988;8.450;2023-11-21T06:25:32;8.90;99.90
21815;DHT22;11069;48.988;8.450;2023-11-21T06:28:02;8.90;99.90
21815;DHT22;11069;48.988;8.450;2023-11-21T06:30:27;8.90;99.90
21815;DHT22;11069;48.988;8.450;2023-11-21T06:32:54;8.90;99.90
21815;DHT22;11069;48.988;8.450;2023-11-21T06:35:20;8.90;99.90
21815;DHT22;11069;48.988;8.450;2023-11-21T06:37:46;8.90;99.90
21815;DHT22;11069;48.988;8.450;2023-11-21T06:40:13;8.90;99.90
21815;DHT22;11069;48.988;8.450;2023-11-21T06:42:40;8.90;99.90
21815;DHT22;11069;48.988;8.450;2023-11-21T06:45:07;8.90;99.90
21815;DHT22;11069;48.988;8.450;2023-11-21T06:47:33;8.80;99.90
21815;DHT22;11069;48.988;8.450;2023-11-21T06:49:59;8.80;99.90
21815;DHT22;11069;48.988;8.450;2023-11-21T06:52:28;8.80;99.90
21815;DHT22;11069;48.988;8.450;2023-11-21T06:54:56;8.80;99.90
21815;DHT22;11069;48.988;8.450;2023-11-21T06:57:25;8.80;99.90
21815;DHT22;11069;48.988;8.450;2023-11-21T06:59:50;8.90;99.90
21815;DHT22;11069;48.988;8.450;2023-11-21T07:02:16;8.90;99.90
21815;DHT22;11069;48.988;8.450;2023-11-21T07:04:44;8.80;99.90
21815;DHT22;11069;48.988;8.450;2023-11-21T07:07:11;8.80;99.90
21815;DHT22;11069;48.988;8.450;2023-11-21T07:09:37;8.80;99.90
21815;DHT22;11069;48.988;8.450;2023-11-21T07:12:03;8.90;99.90
21815;DHT22;11069;48.988;8.450;2023-11-21T07:14:31;8.90;99.90
21815;DHT22;11069;48.988;8.450;2023-11-21T07:16:57;9.00;99.90
21815;DHT22;11069;48.988;8.450;2023-11-21T07:19:23;8.90;99.90
21815;DHT22;11069;48.988;8.450;2023-11-21T07:21:49;8.90;99.90
21815;DHT22;11069;48.988;8.450;2023-11-21T07:24:17;8.80;99.90
21815;DHT22;11069;48.988;8.450;2023-11-21T07:26:43;9.00;99.90
21815;DHT22;11069;48.988;8.450;2023-11-21T07:29:08;9.10;99.90
21815;DHT22;11069;48.988;8.450;2023-11-21T07:31:34;9.10;99.90
21815;DHT22;11069;48.988;8.450;2023-11-21T07:34:00;9.10;99.90
21815;DHT22;11069;48.988;8.450;2023-11-21T07:36:26;9.20;99.90
21815;DHT22;11069;48.988;8.450;2023-11-21T07:38:52;9.10;99.90
21815;DHT22;11069;48.988;8.450;2023-11-21T07:41:18;9.10;99.90
21815;DHT22;11069;48.988;8.450;2023-11-21T07:43:45;9.00;99.90
21815;DHT22;11069;48.988;8.450;2023-11-21T07:46:11;9.10;99.90
21815;DHT22;11069;48.988;8.450;2023-11-21T07:48:41;9.20;99.90
21815;DHT22;11069;48.988;8.450;2023-11-21T07:51:08;9.20;99.90
21815;DHT22;11069;48.988;8.450;2023-11-21T07:53:34;9.20;99.90
21815;DHT22;11069;48.988;8.450;2023-11-21T07:56:04;9.20;99.90
21815;DHT22;11069;48.988;8.450;2023-11-21T07:58:30;9.10;99.90
21815;DHT22;11069;48.988;8.450;2023-11-21T08:00:56;9.20;99.90
21815;DHT22;11069;48.988;8.450;2023-11-21T08:03:22;9.10;99.90
21815;DHT22;11069;48.988;8.450;2023-11-21T08:05:48;9.10;99.90
21815;DHT22;11069;48.988;8.450;2023-11-21T08:08:13;9.10;99.90
21815;DHT22;11069;48.988;8.450;2023-11-21T08:10:39;9.10;99.90
21815;DHT22;11069;48.988;8.450;2023-11-21T08:13:05;9.00;99.90
21815;DHT22;11069;48.988;8.450;2023-11-21T08:15:34;9.00;99.90
21815;DHT22;11069;48.988;8.450;2023-11-21T08:18:01;9.10;99.90
21815;DHT22;11069;48.988;8.450;2023-11-21T08:20:26;9.10;99.90
21815;DHT22;11069;48.988;8.450;2023-11-21T08:22:52;9.10;99.90
21815;DHT22;11069;48.988;8.450;2023-11-21T08:25:18;9.20;99.90
21815;DHT22;11069;48.988;8.450;2023-11-21T08:27:45;9.10;99.90
21815;DHT22;11069;48.988;8.450;2023-11-21T08:30:11;9.20;99.90
21815;DHT22;11069;48.988;8.450;2023-11-21T08:32:39;9.30;99.90
21815;DHT22;11069;48.988;8.450;2023-11-21T08:35:06;9.30;99.90
21815;DHT22;11069;48.988;8.450;2023-11-21T08:37:32;9.30;99.90
21815;DHT22;11069;48.988;8.450;2023-11-21T08:40:01;9.20;99.90
21815;DHT22;11069;48.988;8.450;2023-11-21T08:42:27;9.20;99.90
21815;DHT22;11069;48.988;8.450;2023-11-21T08:44:58;9.20;99.90
21815;DHT22;11069;48.988;8.450;2023-11-21T08:47:24;9.40;99.90
21815;DHT22;11069;48.988;8.450;2023-11-21T08:49:50;9.40;99.90
21815;DHT22;11069;48.988;8.450;2023-11-21T08:52:18;9.50;99.90
21815;DHT22;11069;48.988;8.450;2023-11-21T08:54:44;9.60;99.90
21815;DHT22;11069;48.988;8.450;2023-11-21T08:57:10;9.70;99.90
21815;DHT22;11069;48.988;8.450;2023-11-21T08:59:36;9.70;99.90
21815;DHT22;11069;48.988;8.450;2023-11-21T09:02:02;9.70;99.90
21815;DHT22;11069;48.988;8.450;2023-11-21T09:04:27;9.80;99.90
21815;DHT22;11069;48.988;8.450;2023-11-21T09:06:53;9.80;99.90
21815;DHT22;11069;48.988;8.450;2023-11-21T09:09:19;9.70;99.90
21815;DHT22;11069;48.988;8.450;2023-11-21T09:11:45;9.80;99.90
21815;DHT22;11069;48.988;8.450;2023-11-21T09:14:11;9.90;99.90
21815;DHT22;11069;48.988;8.450;2023-11-21T09:16:40;9.80;99.90
21815;DHT22;11069;48.988;8.450;2023-11-21T09:19:06;9.90;99.90
21815;DHT22;11069;48.988;8.450;2023-11-21T09:21:32;9.90;99.90
21815;DHT22;11069;48.988;8.450;2023-11-21T09:23:58;10.00;99.90
21815;DHT22;11069;48.988;8.450;2023-11-21T09:26:24;10.00;99.90
21815;DHT22;11069;48.988;8.450;2023-11-21T09:28:49;9.90;99.90
21815;DHT22;11069;48.988;8.450;2023-11-21T09:31:15;10.00;99.90
21815;DHT22;11069;48.988;8.450;2023-11-21T09:33:48;9.90;99.90
21815;DHT22;11069;48.988;8.450;2023-11-21T09:36:13;9.80;99.90
21815;DHT22;11069;48.988;8.450;2023-11-21T09:38:40;10.00;99.90
21815;DHT22;11069;48.988;8.450;2023-11-21T09:43:55;9.90;99.90
21815;DHT22;11069;48.988;8.450;2023-11-21T09:46:23;9.90;99.90
21815;DHT22;11069;48.988;8.450;2023-11-21T09:48:51;9.90;99.90
21815;DHT22;11069;48.988;8.450;2023-11-21T09:51:20;9.80;99.90
21815;DHT22;11069;48.988;8.450;2023-11-21T09:53:50;9.90;99.90
21815;DHT22;11069;48.988;8.450;2023-11-21T09:56:18;9.80;99.90
21815;DHT22;11069;48.988;8.450;2023-11-21T09:58:51;9.90;99.90
21815;DHT22;11069;48.988;8.450;2023-11-21T10:01:19;9.80;99.90
21815;DHT22;11069;48.988;8.450;2023-11-21T10:03:44;9.90;99.90
21815;DHT22;11069;48.988;8.450;2023-11-21T10:06:13;9.90;99.90
21815;DHT22;11069;48.988;8.450;2023-11-21T10:08:40;9.80;99.90
21815;DHT22;11069;48.988;8.450;2023-11-21T10:11:07;9.80;99.90
21815;DHT22;11069;48.988;8.450;2023-11-21T10:13:34;9.80;99.90
21815;DHT22;11069;48.988;8.450;2023-11-21T10:16:00;9.80;99.90
21815;DHT22;11069;48.988;8.450;2023-11-21T10:18:32;9.80;99.90
21815;DHT22;11069;48.988;8.450;2023-11-21T10:20:59;9.80;99.90
21815;DHT22;11069;48.988;8.450;2023-11-21T10:23:25;9.70;99.90
21815;DHT22;11069;48.988;8.450;2023-11-21T10:25:52;9.60;99.90
21815;DHT22;11069;48.988;8.450;2023-11-21T10:28:17;9.60;99.90
21815;DHT22;11069;48.988;8.450;2023-11-21T10:30:43;9.60;99.90
21815;DHT22;11069;48.988;8.450;2023-11-21T10:33:45;9.70;99.90
21815;DHT22;11069;48.988;8.450;2023-11-21T10:36:31;9.70;99.90
21815;DHT22;11069;48.988;8.450;2023-11-21T10:38:56;9.70;99.90
21815;DHT22;11069;48.988;8.450;2023-11-21T10:41:22;9.70;99.90
21815;DHT22;11069;48.988;8.450;2023-11-21T10:43:48;9.70;99.90
21815;DHT22;11069;48.988;8.450;2023-11-21T10:46:14;9.80;99.90
21815;DHT22;11069;48.988;8.450;2023-11-21T10:48:42;9.80;99.90
21815;DHT22;11069;48.988;8.450;2023-11-21T10:51:08;9.70;99.90
21815;DHT22;11069;48.988;8.450;2023-11-21T10:53:41;9.70;99.90
21815;DHT22;11069;48.988;8.450;2023-11-21T10:56:13;9.80;99.90
21815;DHT22;11069;48.988;8.450;2023-11-21T10:58:43;9.70;99.90
21815;DHT22;11069;48.988;8.450;2023-11-21T11:01:09;9.80;99.90
21815;DHT22;11069;48.988;8.450;2023-11-21T11:03:37;9.80;99.90
21815;DHT22;11069;48.988;8.450;2023-11-21T11:06:05;9.80;99.90
21815;DHT22;11069;48.988;8.450;2023-11-21T11:08:34;9.80;99.90
21815;DHT22;11069;48.988;8.450;2023-11-21T11:11:00;9.80;99.90
21815;DHT22;11069;48.988;8.450;2023-11-21T11:13:26;9.80;99.90
21815;DHT22;11069;48.988;8.450;2023-11-21T11:15:58;9.90;99.90
21815;DHT22;11069;48.988;8.450;2023-11-21T11:18:33;9.80;99.90
21815;DHT22;11069;48.988;8.450;2023-11-21T11:21:11;9.90;99.90
21815;DHT22;11069;48.988;8.450;2023-11-21T11:29:11;10.00;99.90
21815;DHT22;11069;48.988;8.450;2023-11-21T11:31:55;10.00;99.90
21815;DHT22;11069;48.988;8.450;2023-11-21T11:34:39;10.10;99.90
21815;DHT22;11069;48.988;8.450;2023-11-21T11:37:07;10.10;99.90
21815;DHT22;11069;48.988;8.450;2023-11-21T11:39:41;10.00;99.90
21815;DHT22;11069;48.988;8.450;2023-11-21T11:42:12;10.10;99.90
21815;DHT22;11069;48.988;8.450;2023-11-21T11:50:00;9.90;99.90
21815;DHT22;11069;48.988;8.450;2023-11-21T11:52:41;9.80;99.90
21815;DHT22;11069;48.988;8.450;2023-11-21T11:55:10;9.90;99.90
21815;DHT22;11069;48.988;8.450;2023-11-21T11:57:36;9.90;99.90
21815;DHT22;11069;48.988;8.450;2023-11-21T12:05:20;9.90;99.90
21815;DHT22;11069;48.988;8.450;2023-11-21T12:10:17;10.10;99.90
21815;DHT22;11069;48.988;8.450;2023-11-21T12:12:45;10.10;99.90
21815;DHT22;11069;48.988;8.450;2023-11-21T12:15:12;10.10;99.90
21815;DHT22;11069;48.988;8.450;2023-11-21T12:17:39;10.20;99.90
21815;DHT22;11069;48.988;8.450;2023-11-21T12:20:05;10.10;99.90
21815;DHT22;11069;48.988;8.450;2023-11-21T12:22:49;10.20;99.90
21815;DHT22;11069;48.988;8.450;2023-11-21T12:25:19;10.20;99.90
21815;DHT22;11069;48.988;8.450;2023-11-21T12:27:52;10.10;99.90
21815;DHT22;11069;48.988;8.450;2023-11-21T12:30:19;10.10;99.90
21815;DHT22;11069;48.988;8.450;2023-11-21T12:32:54;10.00;99.90
21815;DHT22;11069;48.988;8.450;2023-11-21T12:35:27;10.00;99.90
21815;DHT22;11069;48.988;8.450;2023-11-21T12:37:55;10.00;99.90
21815;DHT22;11069;48.988;8.450;2023-11-21T12:40:22;10.00;99.90
21815;DHT22;11069;48.988;8.450;2023-11-21T12:42:51;10.00;99.90
21815;DHT22;11069;48.988;8.450;2023-11-21T12:45:20;10.00;99.90
21815;DHT22;11069;48.988;8.450;2023-11-21T12:47:52;10.10;99.90
21815;DHT22;11069;48.988;8.450;2023-11-21T12:50:22;10.10;99.90
21815;DHT22;11069;48.988;8.450;2023-11-21T12:52:52;10.10;99.90
21815;DHT22;11069;48.988;8.450;2023-11-21T12:55:20;10.20;99.90
21815;DHT22;11069;48.988;8.450;2023-11-21T12:57:53;10.20;99.90
21815;DHT22;11069;48.988;8.450;2023-11-21T13:00:32;10.20;99.90
21815;DHT22;11069;48.988;8.450;2023-11-21T13:02:59;10.30;99.90
21815;DHT22;11069;48.988;8.450;2023-11-21T13:05:29;10.30;99.90
21815;DHT22;11069;48.988;8.450;2023-11-21T13:08:01;10.30;99.90
21815;DHT22;11069;48.988;8.450;2023-11-21T13:10:30;10.20;99.90
21815;DHT22;11069;48.988;8.450;2023-11-21T13:13:04;10.20;99.90
21815;DHT22;11069;48.988;8.450;2023-11-21T13:15:40;10.20;99.90
21815;DHT22;11069;48.988;8.450;2023-11-21T13:18:06;10.20;99.90
21815;DHT22;11069;48.988;8.450;2023-11-21T13:20:32;10.30;99.90
21815;DHT22;11069;48.988;8.450;2023-11-21T13:22:58;10.30;99.90
21815;DHT22;11069;48.988;8.450;2023-11-21T13:25:29;10.40;99.90
21815;DHT22;11069;48.988;8.450;2023-11-21T13:27:55;10.40;99.90
21815;DHT22;11069;48.988;8.450;2023-11-21T13:30:21;10.40;99.90
21815;DHT22;11069;48.988;8.450;2023-11-21T13:32:51;10.50;99.90
21815;DHT22;11069;48.988;8.450;2023-11-21T13:35:20;10.40;99.90
21815;DHT22;11069;48.988;8.450;2023-11-21T13:37:53;10.50;99.90
21815;DHT22;11069;48.988;8.450;2023-11-21T13:40:21;10.50;99.90
21815;DHT22;11069;48.988;8.450;2023-11-21T13:42:55;10.50;99.90
21815;DHT22;11069;48.988;8.450;2023-11-21T13:45:25;10.50;99.90
21815;DHT22;11069;48.988;8.450;2023-11-21T13:47:53;10.70;99.90
21815;DHT22;11069;48.988;8.450;2023-11-21T13:50:26;10.80;99.90
21815;DHT22;11069;48.988;8.450;2023-11-21T13:53:01;10.90;99.90
21815;DHT22;11069;48.988;8.450;2023-11-21T13:55:47;10.90;99.90
21815;DHT22;11069;48.988;8.450;2023-11-21T13:58:14;10.80;99.90
21815;DHT22;11069;48.988;8.450;2023-11-21T14:00:45;10.80;99.90
21815;DHT22;11069;48.988;8.450;2023-11-21T14:03:14;10.70;99.90
21815;DHT22;11069;48.988;8.450;2023-11-21T14:05:50;10.80;99.90
21815;DHT22;11069;48.988;8.450;2023-11-21T14:08:19;10.80;99.90
21815;DHT22;11069;48.988;8.450;2023-11-21T14:10:50;10.80;99.90
21815;DHT22;11069;48.988;8.450;2023-11-21T14:13:23;10.80;99.90
21815;DHT22;11069;48.988;8.450;2023-11-21T14:15:50;10.90;99.90
21815;DHT22;11069;48.988;8.450;2023-11-21T14:18:26;11.00;99.90
21815;DHT22;11069;48.988;8.450;2023-11-21T14:21:16;11.00;99.90
21815;DHT22;11069;48.988;8.450;2023-11-21T14:23:42;10.90;99.90
21815;DHT22;11069;48.988;8.450;2023-11-21T14:26:08;10.80;99.90
21815;DHT22;11069;48.988;8.450;2023-11-21T14:28:34;10.60;99.90
21815;DHT22;11069;48.988;8.450;2023-11-21T14:31:01;10.60;99.90
21815;DHT22;11069;48.988;8.450;2023-11-21T14:33:27;10.60;99.90
21815;DHT22;11069;48.988;8.450;2023-11-21T14:35:53;10.80;99.90
21815;DHT22;11069;48.988;8.450;2023-11-21T14:38:18;10.90;99.90
21815;DHT22;11069;48.988;8.450;2023-11-21T14:40:44;11.00;99.90
21815;DHT22;11069;48.988;8.450;2023-11-21T14:43:09;11.00;99.90
21815;DHT22;11069;48.988;8.450;2023-11-21T14:45:35;11.00;99.90
21815;DHT22;11069;48.988;8.450;2023-11-21T14:48:01;11.00;99.90
21815;DHT22;11069;48.988;8.450;2023-11-21T14:50:29;10.90;99.90
21815;DHT22;11069;48.988;8.450;2023-11-21T14:53:11;10.70;99.90
21815;DHT22;11069;48.988;8.450;2023-11-21T14:55:38;10.60;99.90
21815;DHT22;11069;48.988;8.450;2023-11-21T14:58:19;10.60;99.90
21815;DHT22;11069;48.988;8.450;2023-11-21T15:00:57;10.50;99.90
21815;DHT22;11069;48.988;8.450;2023-11-21T15:03:27;10.50;99.90
21815;DHT22;11069;48.988;8.450;2023-11-21T15:05:59;10.50;99.90
21815;DHT22;11069;48.988;8.450;2023-11-21T15:08:37;10.40;99.90
21815;DHT22;11069;48.988;8.450;2023-11-21T15:11:03;10.40;99.90
21815;DHT22;11069;48.988;8.450;2023-11-21T15:13:32;10.40;99.90
21815;DHT22;11069;48.988;8.450;2023-11-21T15:15:58;10.40;99.90
21815;DHT22;11069;48.988;8.450;2023-11-21T15:18:33;10.40;99.90
21815;DHT22;11069;48.988;8.450;2023-11-21T15:20:59;10.50;99.90
21815;DHT22;11069;48.988;8.450;2023-11-21T15:23:25;10.50;99.90
21815;DHT22;11069;48.988;8.450;2023-11-21T15:25:53;10.40;99.90
21815;DHT22;11069;48.988;8.450;2023-11-21T15:28:19;10.30;99.90
21815;DHT22;11069;48.988;8.450;2023-11-21T15:30:45;10.30;99.90
21815;DHT22;11069;48.988;8.450;2023-11-21T15:33:13;10.30;99.90
21815;DHT22;11069;48.988;8.450;2023-11-21T15:35:39;10.40;99.90
21815;DHT22;11069;48.988;8.450;2023-11-21T15:38:06;10.30;99.90
21815;DHT22;11069;48.988;8.450;2023-11-21T15:40:33;10.30;99.90
21815;DHT22;11069;48.988;8.450;2023-11-21T15:42:59;10.20;99.90
21815;DHT22;11069;48.988;8.450;2023-11-21T15:45:25;10.10;99.90
21815;DHT22;11069;48.988;8.450;2023-11-21T15:47:51;10.00;99.90
21815;DHT22;11069;48.988;8.450;2023-11-21T15:50:19;10.00;99.90
21815;DHT22;11069;48.988;8.450;2023-11-21T15:52:44;9.90;99.90
21815;DHT22;11069;48.988;8.450;2023-11-21T15:55:11;9.80;99.90
21815;DHT22;11069;48.988;8.450;2023-11-21T15:57:37;9.70;99.90
21815;DHT22;11069;48.988;8.450;2023-11-21T16:00:02;9.60;99.90
21815;DHT22;11069;48.988;8.450;2023-11-21T16:02:36;9.50;99.90
21815;DHT22;11069;48.988;8.450;2023-11-21T16:05:04;9.50;99.90